• Join FlightAware (Why Join?)
  • Login
  • US Flag 
01:19PM EDT


 

Airport Tracker/Info


-or-


 

Live Flight TrackerFlight Track Log ✈ DAL61 ✈ 12-May-2013 ✈ KLGA - KATL

Flight Track Log - Related Links

Times and Time Zones

All times are in EDT time to prevent confusion due to time zone crossing. See the DAL61 flight status page for this flight to view local times or setup timezone preferences in your user account.

Time Position Orientation Groundspeed Altitude Reporting Facility
EDT Latitude Longitude Course Direction KTS MPH feet Rate Location/Type
06:16PM 40.8167 -73.9000 259° West 169 194 2,300  Level New York TRACON
06:17PM 40.8667 -73.9333 333° Northwest 237 273 5,000 2,940 Climbing New York TRACON
06:18PM 40.9333 -73.9833 330° Northwest 255 293 8,200 3,600 Climbing New York TRACON
06:19PM 40.6759 -74.3447 258° West  Level FlightAware Approximate
06:19PM 40.9333 -74.0667 270° West 254 292 12,200  Level New York TRACON
06:20PM 40.6555 -74.4729 259° West  Level FlightAware Approximate
06:20PM 40.9000 -74.1667 246° West 301 346 13,400  Level New York TRACON
06:21PM 40.6357 -74.6013 259° West  Level FlightAware Approximate
06:22PM 40.8172 -74.3714 242° Southwest 331 381 17,600  Level New York Center
06:23PM 40.7742 -74.4814 243° Southwest 331 381 19,800 2,400 Climbing New York Center
06:24PM 40.7333 -74.5858 243° Southwest 331 381 22,400 2,220 Climbing New York Center
06:25PM 40.6900 -74.6983 243° Southwest 336 387 24,300 1,740 Climbing New York Center
06:26PM 40.6444 -74.8133 242° Southwest 342 394 26,000 1,560 Climbing New York Center
06:27PM 40.5986 -74.9311 243° Southwest 349 402 27,500 1,440 Climbing New York Center
06:28PM 40.5531 -75.0431 242° Southwest 355 409 29,000 1,620 Climbing New York Center
06:29PM 40.4889 -75.1481 231° Southwest 362 417 30,700 1,440 Climbing New York Center
06:30PM 40.4225 -75.2475 229° Southwest 367 422 31,900 1,020 Climbing New York Center
06:31PM 40.3561 -75.3494 230° Southwest 373 429 32,800 960 Climbing New York Center
06:32PM 40.2914 -75.4567 232° Southwest 378 435 33,900 1,140 Climbing New York Center
06:33PM 40.2225 -75.5608 229° Southwest 384 442 35,100 1,080 Climbing New York Center
06:34PM 40.1447 -75.6778 229° Southwest 393 452 36,100 960 Climbing New York Center
06:35PM 40.0758 -75.7839 230° Southwest 388 447 37,100 840 Climbing New York Center
06:36PM 40.0044 -75.8900 229° Southwest 388 447 37,900 360 Climbing New York Center
06:37PM 39.9353 -75.9933 229° Southwest 394 453 37,900  Level New York Center
06:39PM 39.7933 -76.2100 230° Southwest 392 451 37,900  Level Washington Center
06:40PM 39.7156 -76.3144 226° Southwest 392 451 37,900  Level Washington Center
06:41PM 39.6483 -76.4242 232° Southwest 397 457 37,900  Level Washington Center
06:42PM 39.5872 -76.5069 226° Southwest 397 457 37,900  Level Washington Center
06:43PM 39.5031 -76.6217 226° Southwest 397 457 37,900  Level Washington Center
06:44PM 39.4333 -76.7281 230° Southwest 397 457 38,000  Climbing Washington Center
06:45PM 39.3614 -76.8344 229° Southwest 397 457 38,000  Level Washington Center
06:46PM 39.2894 -76.9378 228° Southwest 397 457 38,000 -60 Level Washington Center
06:47PM 39.2172 -77.0408 228° Southwest 391 450 37,900  Descending Washington Center
06:48PM 39.1453 -77.1467 229° Southwest 391 450 38,000  Climbing Washington Center
06:49PM 39.0750 -77.2467 228° Southwest 386 444 37,900  Descending Washington Center
06:50PM 39.0028 -77.3492 228° Southwest 386 444 38,000  Climbing Washington Center
06:51PM 38.9325 -77.4517 229° Southwest 386 444 37,900  Descending Washington Center
06:52PM 38.8619 -77.5539 228° Southwest 386 444 38,000  Climbing Washington Center
06:53PM 38.7872 -77.6636 229° Southwest 381 438 38,000  Level Washington Center
06:54PM 38.7189 -77.7550 226° Southwest 386 444 38,000  Level Washington Center
06:55PM 38.6461 -77.8592 228° Southwest 381 438 38,000  Level Washington Center
06:56PM 38.5836 -77.9633 233° Southwest 381 438 38,000  Level Washington Center
06:57PM 38.5231 -78.0678 233° Southwest 376 433 38,000  Level Washington Center
06:58PM 38.4625 -78.1717 233° Southwest 371 427 38,000  Level Washington Center
06:59PM 38.3997 -78.2781 233° Southwest 376 433 38,000  Level Washington Center
07:00PM 38.3411 -78.3792 234° Southwest 376 433 38,000  Level Washington Center
07:01PM 38.2781 -78.4853 233° Southwest 376 433 38,000  Level Washington Center
07:02PM 38.2192 -78.5889 234° Southwest 376 433 38,000  Level Washington Center
07:03PM 38.1561 -78.6944 233° Southwest 376 433 38,000  Level Washington Center
07:04PM 38.0928 -78.8000 233° Southwest 376 433 38,000  Level Washington Center
07:05PM 38.0275 -78.9028 231° Southwest 381 438 38,000  Level Washington Center
07:06PM 37.9728 -78.9978 234° Southwest 381 438 38,000  Level Washington Center
07:07PM 37.9092 -79.1003 232° Southwest 376 433 38,000  Level Washington Center
07:08PM 37.8394 -79.1994 228° Southwest 376 433 38,000  Level Washington Center
07:09PM 37.7611 -79.3089 228° Southwest 381 438 38,000  Level Washington Center
07:10PM 37.6981 -79.3922 226° Southwest 381 438 38,000  Level Washington Center
07:11PM 37.6194 -79.5011 228° Southwest 381 438 38,000  Level Washington Center
07:12PM 37.5561 -79.5869 227° Southwest 381 438 38,000  Level Washington Center
07:13PM 37.4797 -79.6903 227° Southwest 381 438 38,000  Level Washington Center
07:15PM 37.3369 -79.8836 227° Southwest 384 442 38,000  Level Atlanta Center
07:16PM 37.2653 -79.9811 227° Southwest 384 442 38,000  Level Atlanta Center
07:17PM 37.1894 -80.0842 227° Southwest 378 435 38,000  Level Atlanta Center
07:18PM 37.1175 -80.1814 227° Southwest 378 435 38,000  Level Atlanta Center
07:19PM 37.0472 -80.2733 226° Southwest 378 435 38,000  Level Atlanta Center
07:20PM 36.9792 -80.3647 227° Southwest 378 435 38,000  Level Atlanta Center
07:21PM 36.9169 -80.4483 227° Southwest 378 435 38,000 -60 Level Atlanta Center
07:22PM 36.8469 -80.5447 228° Southwest 378 435 37,900  Descending Atlanta Center
07:23PM 36.7786 -80.6333 226° Southwest 373 429 38,000  Climbing Atlanta Center
07:24PM 36.7100 -80.7242 227° Southwest 366 421 38,000 -60 Level Atlanta Center
07:25PM 36.6375 -80.8206 227° Southwest 373 429 37,900 -60 Descending Atlanta Center
07:26PM 36.5669 -80.9139 227° Southwest 379 436 37,900  Level Atlanta Center
07:27PM 36.4944 -81.0122 227° Southwest 379 436 38,000  Climbing Atlanta Center
07:28PM 36.4236 -81.1050 227° Southwest 374 430 38,000  Level Atlanta Center
07:29PM 36.3508 -81.2006 227° Southwest 381 438 38,000  Level Atlanta Center
07:30PM 36.2800 -81.2931 226° Southwest 381 438 38,000 -540 Level Atlanta Center
07:32PM 36.1319 -81.4886 227° Southwest 381 438 36,500 -720 Descending Atlanta Center
07:33PM 36.0608 -81.5831 227° Southwest 381 438 35,900 -300 Descending Atlanta Center
07:34PM 35.9875 -81.6778 226° Southwest 386 444 36,000  Climbing Atlanta Center
07:35PM 35.9122 -81.7672 224° Southwest 381 438 35,900 -600 Descending Atlanta Center
07:36PM 35.8367 -81.8589 225° Southwest 381 438 34,900 -480 Descending Atlanta Center
07:37PM 35.7567 -81.9481 222° Southwest 386 444 35,000  Climbing Atlanta Center
07:38PM 35.6811 -82.0369 224° Southwest 386 444 35,000  Level Atlanta Center
07:39PM 35.6053 -82.1281 224° Southwest 386 444 35,000 -180 Level Atlanta Center
07:40PM 35.5314 -82.2117 223° Southwest 380 437 34,700 -600 Descending Atlanta Center
07:41PM 35.4597 -82.2972 224° Southwest 375 432 33,800 -1,200 Descending Atlanta Center
07:42PM 35.3858 -82.3803 223° Southwest 364 419 32,400 -1,260 Descending Atlanta Center
07:43PM 35.3139 -82.4633 223° Southwest 364 419 31,300 -1,140 Descending Atlanta Center
07:44PM 35.2378 -82.5511 223° Southwest 369 425 30,200 -1,200 Descending Atlanta Center
07:45PM 35.1636 -82.6339 222° Southwest 369 425 29,000 -1,800 Descending Atlanta Center
07:46PM 35.0831 -82.7214 222° Southwest 375 432 26,600 -1,980 Descending Atlanta Center
07:47PM 35.0028 -82.8167 224° Southwest 387 445 25,100 -1,440 Descending Atlanta Center
07:48PM 34.9367 -82.8886 222° Southwest 397 457 23,800 -1,560 Descending Atlanta Center
07:49PM 34.8417 -82.9986 224° Southwest 395 455 22,000 -900 Descending Atlanta Center
07:50PM 34.7631 -83.0856 222° Southwest 395 455 22,000  Level Atlanta Center
07:51PM 34.6825 -83.1775 223° Southwest 395 455 22,000  Level Atlanta Center
07:52PM 34.6058 -83.2664 224° Southwest 395 455 22,000 -720 Level Atlanta Center
07:53PM 34.5250 -83.3531 221° Southwest 395 455 20,600 -1,800 Descending Atlanta Center
07:54PM 34.4481 -83.4417 224° Southwest 390 449 18,500 -1,800 Descending Atlanta Center
07:55PM 34.3797 -83.5203 224° Southwest 390 449 17,100 -1,500 Descending Atlanta Center
07:56PM 34.3028 -83.6039 222° Southwest 384 442 15,500 -1,800 Descending Atlanta Center
07:57PM 34.2300 -83.6869 223° Southwest 369 425 13,500 -1,800 Descending Atlanta Center
07:58PM 34.1592 -83.7678 223° Southwest 362 417 12,000 -780 Descending Atlanta Center
07:59PM 34.0947 -83.8356 221° Southwest 331 381 12,000 -360 Level Atlanta Center
08:00PM 34.0383 -83.8958 222° Southwest 285 328 11,300 -1,140 Descending Atlanta Center
08:00PM 34.0167 -83.9167 219° Southwest 271 312 10,500 -960 Descending Atlanta TRACON
08:01PM 33.9333 -83.9500 198° South 294 338 10,000 -780 Descending Atlanta TRACON
08:02PM 33.8667 -83.9667 192° South 289 333 9,000 -960 Descending Atlanta TRACON
08:03PM 33.8108 -83.9864 196° South 286 329 8,500 -900 Descending Atlanta Center
08:04PM 33.7358 -84.0064 193° South 286 329 7,600 -840 Descending Atlanta Center
08:05PM 33.6647 -84.0414 202° Southwest 281 323 6,900 -900 Descending Atlanta Center
08:06PM 33.6294 -84.1136 240° Southwest 250 288 5,900 -1,140 Descending Atlanta Center
08:06PM 33.6333 -84.1500 277° West 257 296 5,400 -1,320 Descending Atlanta TRACON
08:07PM 33.6333 -84.2167 270° West 217 250 4,100 -1,200 Descending Atlanta TRACON
08:08PM 33.6333 -84.2833 270° West 182 209 3,100 -1,020 Descending Atlanta TRACON